Terminal Aerodrome Forecast
Issued by NWS

Home | Current Version | Previous Version | Text Only | Print | Product List | Glossary On
Versions: 1 2 3 4 5 6 7 8 9 10 11 12 13 14 15 16 17 18 19 20
156
FTUS46 KSEW 132351
TAFHQM
TAF
KHQM 132351Z 1400/1424 16016G26KT 3SM -RA BR OVC014
     FM140200 21011G18KT 5SM -RA BR SCT010 OVC018=

USA.gov is the U.S. government's official web portal to all federal, state and local government web resources and services.